createdAt,value
2022-10-01T00:06:17.796Z,20
2022-10-01T00:36:24.109Z,18
2022-10-01T01:06:30.069Z,18
2022-10-01T01:36:38.667Z,18
2022-10-01T02:06:46.547Z,15
2022-10-01T02:36:51.965Z,15
2022-10-01T03:06:57.146Z,15
2022-10-01T03:37:09.251Z,13
2022-10-01T04:07:22.367Z,13
2022-10-01T04:37:29.874Z,13
2022-10-01T05:07:33.896Z,15
2022-10-01T05:37:38.944Z,13
2022-10-01T06:07:44.948Z,13
2022-10-01T06:37:57.707Z,14
2022-10-01T07:08:06.771Z,14
2022-10-01T08:08:22.154Z,13
2022-10-01T08:38:32.406Z,14
2022-10-01T09:08:38.249Z,13
2022-10-01T09:38:46.603Z,11
2022-10-01T10:08:56.852Z,10
2022-10-01T10:39:04.935Z,10
2022-10-01T11:09:14.687Z,9
2022-10-01T11:39:22.947Z,10
2022-10-01T12:09:33.017Z,9
2022-10-01T12:39:41.784Z,11
2022-10-01T13:09:48.821Z,9
2022-10-01T13:39:57.635Z,9
2022-10-01T14:10:07.333Z,9
2022-10-01T14:40:17.514Z,8
2022-10-01T15:10:23.821Z,9
2022-10-01T15:40:31.593Z,8
2022-10-01T16:10:38.179Z,9
2022-10-01T16:40:45.875Z,9
2022-10-01T17:10:54.536Z,10
2022-10-01T18:11:05.733Z,8
2022-10-01T18:41:13.541Z,7
2022-10-01T19:11:20.085Z,9
2022-10-01T19:41:25.900Z,9
2022-10-01T20:11:33.077Z,9
2022-10-01T20:41:40.889Z,9
2022-10-01T21:11:48.985Z,9
2022-10-01T21:41:56.008Z,10
2022-10-01T22:12:03.456Z,10
2022-10-01T22:42:10.113Z,9
2022-10-01T23:12:17.471Z,8
2022-10-01T23:42:25.113Z,8
